Disclaimer

Please do not use the information listed here in-flight or in-navigation, as they are not provided to us by the airports but are provided by volunteers, so they might be outdated.

Search


Regions


Airport information page

Radio informations:
Tower (TWR) - 119.6 MHz

Airport informations:
Latitude: 60° 07' 19.93" N
Longitude: 019° 53' 53.36" E
Elevation: 17 feet - 5 meters
Operating hours: N/A
Operating agency: Civil government, landing fees and diplomatic clearance may be required
Timezone: UTC+2(+3DT) - Last Sunday in March to last Sunday in October
Fuel: Jet A1, without icing nhibitor.

100/130 MIL Spec, low lead, aviation gasoline (BLUE)

Runway information:
03/21 - 6243 x 197 feet< - >1903 x 60 meters

Recent METARs:
EFMA 181850Z AUTO 03010KT 360V060 9999 BKN021 03/M02 Q1039
EFMA 181920Z AUTO 04007KT 360V090 9999 OVC020 03/M02 Q1039
EFMA 181950Z AUTO 04007KT 9999 BKN021 02/M02 Q1039

Airport on the map: